createdAt,value
2019-04-21T00:01:50.701Z,7.05
2019-04-21T00:04:32.158Z,6.08
2019-04-21T00:07:08.706Z,6.03
2019-04-21T00:09:42.402Z,6.60
2019-04-21T00:12:07.502Z,5.85
2019-04-21T00:14:29.093Z,6.15
2019-04-21T00:16:55.240Z,6.53
2019-04-21T00:19:35.408Z,6.33
2019-04-21T00:22:17.816Z,7.03
2019-04-21T00:24:44.386Z,6.97
2019-04-21T00:27:15.984Z,7.08
2019-04-21T00:29:50.112Z,6.00
2019-04-21T00:32:14.833Z,5.70
2019-04-21T00:34:28.432Z,6.03
2019-04-21T00:37:08.521Z,6.70
2019-04-21T00:42:13.984Z,5.47
2019-04-21T00:44:35.550Z,6.28
2019-04-21T00:47:14.041Z,6.72
2019-04-21T00:49:43.155Z,6.62
2019-04-21T00:57:51.874Z,6.70
2019-04-21T01:00:20.373Z,6.70
2019-04-21T01:02:52.547Z,6.05
2019-04-21T01:05:18.583Z,6.22
2019-04-21T01:07:42.362Z,6.17
2019-04-21T01:10:05.264Z,6.15
2019-04-21T01:12:44.442Z,6.00
2019-04-21T01:15:18.599Z,6.17
2019-04-21T01:18:26.201Z,6.42
2019-04-21T01:20:55.390Z,6.78
2019-04-21T01:23:23.697Z,6.33
2019-04-21T01:26:09.196Z,6.17
2019-04-21T01:28:36.225Z,6.35
2019-04-21T01:31:08.847Z,6.30
2019-04-21T01:33:38.520Z,6.25
2019-04-21T01:36:06.679Z,6.28
2019-04-21T01:38:40.120Z,6.53
2019-04-21T01:41:09.937Z,6.70
2019-04-21T01:43:33.305Z,6.70
2019-04-21T01:46:00.657Z,7.12
2019-04-21T01:48:33.295Z,7.28
2019-04-21T01:51:03.324Z,7.45
2019-04-21T01:53:42.463Z,7.10
2019-04-21T01:56:46.565Z,6.37
2019-04-21T01:59:07.008Z,6.97
2019-04-21T02:01:46.232Z,6.20
2019-04-21T02:04:24.546Z,7.17
2019-04-21T02:06:44.416Z,6.87
2019-04-21T02:09:10.146Z,7.03
2019-04-21T02:11:50.858Z,7.03
2019-04-21T02:14:17.487Z,6.42
2019-04-21T02:16:40.432Z,7.28
2019-04-21T02:19:06.631Z,7.55
2019-04-21T02:21:36.592Z,7.47
2019-04-21T02:24:22.275Z,6.25
2019-04-21T02:26:42.990Z,6.62
2019-04-21T02:29:15.806Z,6.37
2019-04-21T02:31:44.726Z,6.65
2019-04-21T02:36:58.614Z,6.22
2019-04-21T02:41:51.695Z,6.75
2019-04-21T02:46:50.420Z,6.65
2019-04-21T02:49:30.844Z,6.70
2019-04-21T02:51:51.004Z,7.28
2019-04-21T02:56:48.867Z,6.95
2019-04-21T02:59:17.142Z,6.83
2019-04-21T03:07:32.429Z,6.37
2019-04-21T03:12:17.923Z,6.25
2019-04-21T03:19:50.065Z,7.00
2019-04-21T03:22:20.966Z,6.53
2019-04-21T03:25:04.449Z,7.47
2019-04-21T03:27:46.519Z,6.97
2019-04-21T03:29:54.404Z,6.83
2019-04-21T03:32:50.384Z,6.37
2019-04-21T03:37:19.200Z,6.65
2019-04-21T03:39:44.936Z,6.67
2019-04-21T03:42:29.933Z,6.85
2019-04-21T03:44:45.609Z,6.65
2019-04-21T03:47:18.852Z,6.17
2019-04-21T04:00:42.117Z,6.47
2019-04-21T04:03:42.155Z,5.90
2019-04-21T04:06:13.697Z,6.87
2019-04-21T04:11:29.466Z,7.37
2019-04-21T04:13:56.323Z,6.55
2019-04-21T04:16:19.731Z,6.58
2019-04-21T04:18:57.905Z,6.30
2019-04-21T04:21:20.794Z,6.12
2019-04-21T04:24:00.863Z,5.97
2019-04-21T04:28:54.272Z,5.97
2019-04-21T04:31:30.124Z,5.90
2019-04-21T04:36:33.869Z,6.35
2019-04-21T04:47:16.749Z,6.42
2019-04-21T04:49:49.651Z,6.30
2019-04-21T04:57:25.380Z,6.30
2019-04-21T04:59:47.845Z,6.50
2019-04-21T05:07:16.936Z,6.85
2019-04-21T05:09:50.436Z,6.25
2019-04-21T05:12:11.284Z,6.53
2019-04-21T05:14:46.704Z,6.50
2019-04-21T05:17:31.092Z,5.80
2019-04-21T05:20:04.858Z,6.30
2019-04-21T05:24:39.953Z,5.90
2019-04-21T05:27:28.180Z,5.72
2019-04-21T05:30:07.278Z,6.10
2019-04-21T05:32:53.608Z,6.58
2019-04-21T05:35:39.176Z,6.35
2019-04-21T05:38:18.861Z,5.72
2019-04-21T05:40:39.902Z,5.10
2019-04-21T05:43:15.356Z,6.42
2019-04-21T05:45:47.646Z,6.42
2019-04-21T05:48:28.346Z,5.67
2019-04-21T05:50:54.133Z,6.62
2019-04-21T05:53:29.542Z,6.08
2019-04-21T05:55:57.122Z,6.60
2019-04-21T05:58:22.826Z,6.30
2019-04-21T06:01:15.388Z,6.15
2019-04-21T06:03:24.718Z,5.67
2019-04-21T06:06:00.269Z,5.80
2019-04-21T06:08:23.621Z,5.90
2019-04-21T06:10:52.330Z,5.22
2019-04-21T06:13:31.945Z,5.05
2019-04-21T06:15:56.989Z,6.08
2019-04-21T06:18:27.236Z,5.95
2019-04-21T06:20:47.726Z,5.60
2019-04-21T06:23:19.076Z,5.42
2019-04-21T06:28:21.063Z,5.47
2019-04-21T06:31:08.053Z,6.03
2019-04-21T06:33:16.856Z,5.87
2019-04-21T06:36:25.974Z,6.20
2019-04-21T06:39:00.321Z,5.53
2019-04-21T06:41:27.805Z,5.37
2019-04-21T06:43:59.815Z,6.03
2019-04-21T06:46:25.569Z,5.62
2019-04-21T06:48:49.717Z,5.20
2019-04-21T06:51:22.513Z,5.62
2019-04-21T06:53:54.525Z,5.60
2019-04-21T06:56:13.735Z,5.58
2019-04-21T06:58:42.877Z,5.87
2019-04-21T07:01:17.193Z,5.17
2019-04-21T07:03:49.313Z,5.40
2019-04-21T07:06:15.761Z,5.72
2019-04-21T07:11:08.468Z,5.55
2019-04-21T07:13:41.550Z,5.42
2019-04-21T07:16:12.183Z,5.20
2019-04-21T07:18:45.070Z,5.70
2019-04-21T07:21:07.923Z,7.60
2019-04-21T07:23:36.884Z,7.67
2019-04-21T07:26:05.800Z,6.87
2019-04-21T07:28:38.896Z,5.87
2019-04-21T07:31:14.042Z,6.15
2019-04-21T07:36:06.465Z,5.72
2019-04-21T07:38:27.406Z,6.78
2019-04-21T07:40:56.756Z,6.60
2019-04-21T07:43:30.026Z,6.03
2019-04-21T07:45:58.836Z,6.10
2019-04-21T07:48:44.658Z,6.05
2019-04-21T07:51:27.181Z,5.15
2019-04-21T07:56:09.359Z,5.55
2019-04-21T07:59:00.179Z,5.90
2019-04-21T08:01:24.296Z,6.28
2019-04-21T08:03:56.990Z,6.30
2019-04-21T08:06:20.724Z,5.40
2019-04-21T08:08:50.996Z,5.37
2019-04-21T08:11:16.337Z,5.70
2019-04-21T08:13:44.925Z,5.35
2019-04-21T08:16:20.117Z,6.83
2019-04-21T08:18:50.201Z,5.62
2019-04-21T08:21:15.451Z,5.50
2019-04-21T08:23:43.163Z,5.17
2019-04-21T08:26:07.713Z,5.37
2019-04-21T08:28:47.507Z,4.87
2019-04-21T08:31:14.347Z,5.53
2019-04-21T08:36:17.748Z,5.87
2019-04-21T08:52:29.483Z,5.20
2019-04-21T08:54:47.058Z,5.62
2019-04-21T08:57:34.074Z,5.17
2019-04-21T09:00:05.046Z,5.12
2019-04-21T09:02:46.699Z,5.70
2019-04-21T09:05:14.123Z,6.10
2019-04-21T09:07:47.567Z,5.58
2019-04-21T09:10:09.734Z,6.08
2019-04-21T09:12:44.850Z,5.25
2019-04-21T09:15:08.333Z,5.72
2019-04-21T09:17:32.852Z,6.20
2019-04-21T09:20:13.815Z,5.33
2019-04-21T09:22:38.239Z,5.72
2019-04-21T09:25:01.492Z,6.10
2019-04-21T09:27:35.529Z,6.28
2019-04-21T09:29:53.945Z,5.97
2019-04-21T09:32:21.717Z,5.58
2019-04-21T09:34:47.350Z,6.35
2019-04-21T09:37:26.850Z,5.42
2019-04-21T09:39:48.433Z,5.75
2019-04-21T09:42:13.598Z,5.58
2019-04-21T09:44:45.781Z,5.50
2019-04-21T09:47:12.606Z,4.78
2019-04-21T09:49:41.885Z,5.10
2019-04-21T09:52:18.853Z,5.72
2019-04-21T09:54:48.229Z,6.15
2019-04-21T09:57:19.992Z,5.33
2019-04-21T09:59:43.511Z,5.40
2019-04-21T10:02:16.183Z,5.78
2019-04-21T10:04:38.103Z,5.20
2019-04-21T10:07:06.821Z,5.35
2019-04-21T10:09:35.588Z,5.28
2019-04-21T10:12:03.153Z,5.20
2019-04-21T10:14:30.945Z,5.53
2019-04-21T10:17:17.267Z,5.37
2019-04-21T10:19:44.435Z,5.03
2019-04-21T10:22:12.652Z,9.05
2019-04-21T10:24:40.521Z,5.45
2019-04-21T10:27:09.027Z,4.97
2019-04-21T10:29:42.506Z,5.12
2019-04-21T10:32:05.909Z,4.97
2019-04-21T10:34:33.420Z,5.28
2019-04-21T10:37:01.218Z,5.22
2019-04-21T10:39:29.422Z,4.95
2019-04-21T10:41:57.272Z,4.90
2019-04-21T10:44:25.211Z,5.10
2019-04-21T10:46:54.495Z,4.75
2019-04-21T10:49:22.536Z,4.70
2019-04-21T10:51:50.826Z,4.72
2019-04-21T10:54:18.030Z,4.90
2019-04-21T10:56:46.244Z,4.60
2019-04-21T10:59:16.151Z,4.90
2019-04-21T11:01:45.167Z,4.60
2019-04-21T11:04:23.112Z,4.80
2019-04-21T11:06:46.464Z,4.30
2019-04-21T11:09:14.009Z,4.25
2019-04-21T11:11:44.614Z,4.58
2019-04-21T11:14:10.682Z,4.97
2019-04-21T11:16:37.679Z,4.50
2019-04-21T11:19:06.194Z,4.08
2019-04-21T11:21:34.525Z,4.35
2019-04-21T11:24:01.997Z,4.70
2019-04-21T11:26:31.800Z,4.42
2019-04-21T11:28:59.122Z,4.50
2019-04-21T11:31:27.189Z,4.12
2019-04-21T11:33:55.399Z,4.50
2019-04-21T11:36:22.624Z,3.72
2019-04-21T11:39:08.381Z,4.17
2019-04-21T11:41:25.993Z,3.98
2019-04-21T11:43:53.246Z,3.60
2019-04-21T11:46:20.537Z,4.30
2019-04-21T11:48:48.334Z,3.80
2019-04-21T11:51:15.541Z,4.22
2019-04-21T11:53:43.126Z,3.95
2019-04-21T11:56:10.285Z,4.33
2019-04-21T11:58:37.391Z,4.33
2019-04-21T12:01:05.892Z,4.10
2019-04-21T12:03:33.619Z,3.95
2019-04-21T12:06:01.845Z,3.83
2019-04-21T12:08:35.104Z,3.80
2019-04-21T12:10:57.972Z,4.12
2019-04-21T12:13:24.987Z,8.30
2019-04-21T12:15:52.811Z,3.70
2019-04-21T12:18:21.995Z,3.92
2019-04-21T12:20:51.617Z,3.92
2019-04-21T12:23:19.001Z,3.87
2019-04-21T12:25:49.452Z,4.10
2019-04-21T12:28:17.389Z,4.10
2019-04-21T12:30:47.380Z,4.47
2019-04-21T12:33:20.206Z,3.95
2019-04-21T12:35:48.211Z,3.90
2019-04-21T12:38:19.791Z,4.12
2019-04-21T12:40:46.556Z,4.20
2019-04-21T12:43:14.741Z,3.85
2019-04-21T12:45:42.346Z,3.98
2019-04-21T12:48:10.403Z,4.17
2019-04-21T12:50:37.509Z,4.10
2019-04-21T12:53:05.385Z,4.30
2019-04-21T12:55:38.022Z,3.87
2019-04-21T12:58:01.836Z,3.62
2019-04-21T13:00:29.035Z,4.40
2019-04-21T13:02:56.187Z,3.87
2019-04-21T13:05:23.179Z,4.00
2019-04-21T13:07:51.224Z,3.65
2019-04-21T13:10:20.230Z,3.85
2019-04-21T13:12:48.139Z,3.83
2019-04-21T13:15:15.715Z,4.00
2019-04-21T13:17:45.614Z,4.58
2019-04-21T13:20:12.669Z,4.10
2019-04-21T13:22:40.090Z,4.65
2019-04-21T13:25:07.629Z,5.78
2019-04-21T13:27:36.450Z,5.70
2019-04-21T13:30:06.328Z,5.47
2019-04-21T13:32:33.615Z,6.10
2019-04-21T13:35:01.247Z,5.03
2019-04-21T13:37:29.740Z,5.53
2019-04-21T13:40:35.998Z,5.25
2019-04-21T13:42:54.984Z,4.90
2019-04-21T13:45:18.329Z,5.10
2019-04-21T13:47:46.518Z,4.80
2019-04-21T13:50:15.310Z,4.83
2019-04-21T13:52:42.743Z,4.92
2019-04-21T13:55:09.952Z,5.05
2019-04-21T13:57:38.707Z,4.28
2019-04-21T14:00:05.929Z,4.53
2019-04-21T14:02:34.335Z,5.22
2019-04-21T14:05:01.616Z,4.53
2019-04-21T14:07:30.168Z,4.45
2019-04-21T14:10:02.551Z,4.72
2019-04-21T14:12:27.454Z,4.85
2019-04-21T14:14:54.847Z,3.72
2019-04-21T14:17:22.500Z,4.25
2019-04-21T14:19:50.961Z,4.33
2019-04-21T14:22:20.222Z,4.45
2019-04-21T14:24:47.998Z,4.58
2019-04-21T14:27:16.340Z,4.40
2019-04-21T14:29:43.930Z,4.75
2019-04-21T14:32:11.070Z,4.87
2019-04-21T14:34:39.698Z,4.85
2019-04-21T14:37:08.690Z,5.33
2019-04-21T14:39:49.755Z,5.30
2019-04-21T14:42:06.444Z,4.92
2019-04-21T14:44:33.918Z,4.85
2019-04-21T14:47:16.842Z,4.85
2019-04-21T14:50:22.382Z,4.35
2019-04-21T14:53:07.883Z,5.20
2019-04-21T14:55:37.270Z,4.75
2019-04-21T14:58:07.274Z,4.45
2019-04-21T15:00:53.960Z,4.28
2019-04-21T15:03:21.654Z,4.78
2019-04-21T15:05:49.397Z,4.25
2019-04-21T15:08:17.268Z,4.65
2019-04-21T15:10:45.205Z,4.67
2019-04-21T15:13:14.031Z,4.72
2019-04-21T15:15:43.698Z,4.75
2019-04-21T15:18:12.499Z,4.95
2019-04-21T15:20:40.493Z,4.80
2019-04-21T15:23:08.345Z,4.53
2019-04-21T15:25:36.246Z,4.53
2019-04-21T15:28:03.667Z,4.70
2019-04-21T15:30:32.335Z,4.35
2019-04-21T15:33:00.519Z,4.90
2019-04-21T15:35:28.978Z,4.47
2019-04-21T15:37:58.027Z,4.05
2019-04-21T15:40:38.670Z,4.37
2019-04-21T15:42:54.762Z,4.60
2019-04-21T15:45:21.819Z,4.70
2019-04-21T15:47:49.974Z,4.45
2019-04-21T15:50:19.493Z,4.70
2019-04-21T15:52:47.653Z,4.25
2019-04-21T15:55:21.134Z,4.25
2019-04-21T15:57:58.624Z,4.15
2019-04-21T16:00:36.404Z,4.58
2019-04-21T16:03:04.611Z,4.53
2019-04-21T16:05:32.956Z,3.85
2019-04-21T16:08:00.346Z,4.37
2019-04-21T16:10:40.216Z,4.17
2019-04-21T16:12:58.110Z,4.70
2019-04-21T16:15:26.302Z,4.28
2019-04-21T16:17:53.392Z,4.42
2019-04-21T16:20:21.853Z,4.62
2019-04-21T16:22:50.317Z,4.50
2019-04-21T16:25:21.025Z,4.05
2019-04-21T16:27:48.113Z,4.15
2019-04-21T16:30:15.619Z,4.12
2019-04-21T16:32:43.975Z,4.15
2019-04-21T16:35:14.346Z,4.03
2019-04-21T16:37:41.677Z,4.35
2019-04-21T16:40:09.522Z,4.25
2019-04-21T16:42:38.314Z,4.30
2019-04-21T16:45:07.179Z,4.20
2019-04-21T16:47:35.872Z,4.20
2019-04-21T16:50:05.566Z,4.12
2019-04-21T16:52:38.353Z,4.12
2019-04-21T16:55:25.146Z,4.60
2019-04-21T16:58:04.561Z,4.62
2019-04-21T17:00:34.800Z,9.10
2019-04-21T17:02:56.683Z,7.50
2019-04-21T17:05:24.534Z,8.38
2019-04-21T17:07:52.870Z,7.67
2019-04-21T17:10:20.568Z,7.70
2019-04-21T17:12:48.107Z,6.35
2019-04-21T17:15:32.366Z,8.33
2019-04-21T17:18:05.977Z,9.58
2019-04-21T17:20:30.052Z,8.18
2019-04-21T17:22:43.841Z,7.65
2019-04-21T17:25:11.459Z,7.75
2019-04-21T17:27:38.968Z,8.45
2019-04-21T17:30:08.494Z,7.22
2019-04-21T17:32:42.428Z,7.72
2019-04-21T17:35:06.003Z,7.62
2019-04-21T17:37:34.116Z,8.10
2019-04-21T17:40:04.833Z,6.53
2019-04-21T17:42:39.785Z,5.50
2019-04-21T17:44:59.511Z,5.70
2019-04-21T17:47:38.419Z,4.78
2019-04-21T17:50:25.568Z,5.25
2019-04-21T17:53:00.794Z,5.08
2019-04-21T17:55:29.838Z,5.80
2019-04-21T17:58:11.661Z,5.00
2019-04-21T18:01:09.523Z,4.70
2019-04-21T18:03:25.139Z,4.45
2019-04-21T18:05:42.102Z,5.62
2019-04-21T18:08:19.225Z,5.85
2019-04-21T18:10:40.176Z,6.20
2019-04-21T18:13:01.406Z,5.87
2019-04-21T18:15:40.227Z,5.90
2019-04-21T18:17:52.399Z,6.72
2019-04-21T18:20:23.907Z,7.20
2019-04-21T18:22:59.032Z,7.12
2019-04-21T18:25:44.424Z,6.45
2019-04-21T18:27:58.697Z,6.70
2019-04-21T18:30:52.303Z,6.17
2019-04-21T18:33:25.387Z,5.60
2019-04-21T18:36:22.627Z,5.50
2019-04-21T18:39:21.873Z,5.55
2019-04-21T18:42:03.704Z,5.17
2019-04-21T18:44:42.561Z,5.72
2019-04-21T18:47:29.003Z,5.40
2019-04-21T18:49:56.403Z,5.05
2019-04-21T18:52:45.740Z,5.95
2019-04-21T18:55:16.027Z,5.83
2019-04-21T18:57:37.316Z,5.72
2019-04-21T18:59:59.475Z,5.37
2019-04-21T19:02:31.726Z,5.03
2019-04-21T19:05:04.384Z,4.95
2019-04-21T19:07:45.446Z,5.78
2019-04-21T19:10:22.671Z,5.25
2019-04-21T19:13:16.218Z,5.55
2019-04-21T19:15:07.405Z,5.00
2019-04-21T19:20:18.053Z,4.42
2019-04-21T19:22:38.699Z,4.97
2019-04-21T19:25:09.715Z,5.83
2019-04-21T19:27:36.626Z,6.50
2019-04-21T19:32:35.957Z,5.22
2019-04-21T19:34:50.388Z,5.50
2019-04-21T19:37:21.947Z,5.53
2019-04-21T19:39:58.906Z,5.53
2019-04-21T19:42:25.463Z,5.70
2019-04-21T19:45:00.447Z,5.85
2019-04-21T19:47:36.764Z,5.20
2019-04-21T19:50:01.505Z,4.97
2019-04-21T19:52:25.539Z,4.92
2019-04-21T19:54:44.628Z,5.58
2019-04-21T19:57:09.212Z,4.95
2019-04-21T19:59:42.678Z,4.95
2019-04-21T20:02:06.932Z,5.45
2019-04-21T20:04:42.822Z,5.55
2019-04-21T20:07:21.101Z,5.65
2019-04-21T20:09:50.814Z,5.28
2019-04-21T20:12:18.691Z,5.35
2019-04-21T20:14:57.645Z,5.62
2019-04-21T20:17:16.442Z,6.30
2019-04-21T20:19:30.102Z,6.40
2019-04-21T20:21:57.131Z,5.72
2019-04-21T20:24:28.389Z,5.92
2019-04-21T20:27:02.225Z,5.80
2019-04-21T20:29:44.563Z,5.60
2019-04-21T20:32:19.123Z,5.60
2019-04-21T20:34:41.416Z,5.20
2019-04-21T20:37:12.776Z,5.53
2019-04-21T20:39:24.168Z,5.65
2019-04-21T20:42:01.714Z,5.80
2019-04-21T20:44:37.136Z,6.05
2019-04-21T20:46:59.114Z,6.65
2019-04-21T20:49:27.064Z,6.08
2019-04-21T20:52:14.088Z,6.00
2019-04-21T20:54:31.716Z,6.30
2019-04-21T20:57:02.755Z,6.08
2019-04-21T20:59:24.828Z,5.85
2019-04-21T21:02:01.673Z,5.75
2019-04-21T21:04:25.477Z,7.00
2019-04-21T21:07:01.668Z,5.42
2019-04-21T21:09:25.338Z,5.55
2019-04-21T21:12:11.363Z,5.90
2019-04-21T21:14:28.091Z,5.45
2019-04-21T21:17:00.102Z,6.20
2019-04-21T21:19:29.086Z,6.05
2019-04-21T21:21:49.979Z,5.72
2019-04-21T21:24:21.902Z,6.80
2019-04-21T21:26:53.196Z,7.10
2019-04-21T21:29:23.851Z,5.85
2019-04-21T21:31:59.529Z,6.42
2019-04-21T21:34:21.392Z,6.00
2019-04-21T21:36:50.556Z,5.80
2019-04-21T21:39:15.452Z,5.80
2019-04-21T21:41:34.516Z,6.28
2019-04-21T21:44:05.801Z,6.00
2019-04-21T21:46:44.205Z,5.80
2019-04-21T21:49:07.466Z,5.83
2019-04-21T21:51:39.326Z,5.72
2019-04-21T21:53:57.079Z,6.00
2019-04-21T21:56:24.735Z,6.03
2019-04-21T21:58:53.540Z,7.12
2019-04-21T22:01:36.518Z,6.70
2019-04-21T22:04:01.229Z,6.08
2019-04-21T22:06:24.025Z,6.87
2019-04-21T22:08:52.263Z,6.45
2019-04-21T22:11:20.113Z,6.65
2019-04-21T22:13:56.699Z,5.80
2019-04-21T22:16:19.271Z,5.92
2019-04-21T22:19:06.894Z,5.72
2019-04-21T22:21:36.519Z,5.60
2019-04-21T22:23:54.912Z,5.85
2019-04-21T22:26:13.554Z,5.70
2019-04-21T22:28:40.797Z,5.87
2019-04-21T22:31:15.441Z,5.72
2019-04-21T22:33:40.279Z,5.50
2019-04-21T22:36:23.293Z,6.58
2019-04-21T22:38:50.971Z,6.33
2019-04-21T22:41:14.393Z,6.33
2019-04-21T22:43:41.534Z,6.83
2019-04-21T22:46:05.181Z,6.47
2019-04-21T22:48:34.583Z,6.20
2019-04-21T22:51:02.986Z,5.75
2019-04-21T22:53:37.435Z,6.25
2019-04-21T22:56:07.381Z,6.00
2019-04-21T22:58:34.034Z,5.92
2019-04-21T23:01:01.902Z,6.05
2019-04-21T23:03:30.345Z,5.87
2019-04-21T23:06:07.415Z,5.58
2019-04-21T23:08:36.963Z,5.85
2019-04-21T23:11:06.485Z,5.70
2019-04-21T23:13:33.173Z,6.85
2019-04-21T23:16:06.146Z,6.45
2019-04-21T23:18:46.372Z,7.20
2019-04-21T23:21:16.352Z,6.55
2019-04-21T23:23:59.587Z,6.50
2019-04-21T23:26:28.086Z,5.83
2019-04-21T23:28:57.095Z,6.37
2019-04-21T23:31:29.090Z,6.03
2019-04-21T23:33:42.021Z,6.08
2019-04-21T23:36:16.914Z,5.97
2019-04-21T23:38:46.231Z,6.20
2019-04-21T23:41:13.270Z,6.03
2019-04-21T23:43:44.827Z,5.70
2019-04-21T23:46:20.334Z,6.35
2019-04-21T23:49:03.796Z,6.78
2019-04-21T23:51:32.421Z,6.25
2019-04-21T23:53:47.252Z,6.78
2019-04-21T23:56:23.234Z,5.97
2019-04-21T23:58:56.325Z,6.33
